sensor_id;sensor_type;location;lat;lon;timestamp;pressure;altitude;pressure_sealevel;temperature;humidity
78343;BME280;67618;52.444;21.192;2023-04-19T00:00:11;100873.33;;;11.07;65.38
78343;BME280;67618;52.444;21.192;2023-04-19T00:05:35;100873.15;;;11.00;65.36
78343;BME280;67618;52.444;21.192;2023-04-19T00:10:38;100866.48;;;10.93;65.47
78343;BME280;67618;52.444;21.192;2023-04-19T00:15:40;100868.05;;;10.85;65.59
78343;BME280;67618;52.444;21.192;2023-04-19T00:20:41;100860.69;;;10.78;66.16
78343;BME280;67618;52.444;21.192;2023-04-19T00:25:44;100858.93;;;10.71;66.43
78343;BME280;67618;52.444;21.192;2023-04-19T00:30:46;100855.41;;;10.64;66.59
78343;BME280;67618;52.444;21.192;2023-04-19T00:35:47;100851.04;;;10.61;67.36
78343;BME280;67618;52.444;21.192;2023-04-19T00:40:48;100845.63;;;10.59;68.05
78343;BME280;67618;52.444;21.192;2023-04-19T00:45:50;100840.38;;;10.58;68.47
78343;BME280;67618;52.444;21.192;2023-04-19T00:50:51;100836.01;;;10.58;68.87
78343;BME280;67618;52.444;21.192;2023-04-19T00:55:56;100832.14;;;10.50;69.76
78343;BME280;67618;52.444;21.192;2023-04-19T01:00:58;100831.07;;;10.38;70.30
78343;BME280;67618;52.444;21.192;2023-04-19T01:06:00;100827.05;;;10.33;71.07
78343;BME280;67618;52.444;21.192;2023-04-19T01:11:02;100818.48;;;10.31;71.07
78343;BME280;67618;52.444;21.192;2023-04-19T01:16:04;100812.71;;;10.28;71.93
78343;BME280;67618;52.444;21.192;2023-04-19T01:21:06;100800.98;;;10.22;72.68
78343;BME280;67618;52.444;21.192;2023-04-19T01:26:08;100797.27;;;10.09;72.94
78343;BME280;67618;52.444;21.192;2023-04-19T01:31:10;100792.80;;;9.93;73.58
78343;BME280;67618;52.444;21.192;2023-04-19T01:36:11;100783.86;;;9.82;74.23
78343;BME280;67618;52.444;21.192;2023-04-19T01:41:13;100773.00;;;9.73;74.01
78343;BME280;67618;52.444;21.192;2023-04-19T01:46:15;100770.70;;;9.66;75.02
78343;BME280;67618;52.444;21.192;2023-04-19T01:51:16;100765.77;;;9.59;75.12
78343;BME280;67618;52.444;21.192;2023-04-19T01:56:18;100760.87;;;9.56;75.09
78343;BME280;67618;52.444;21.192;2023-04-19T02:01:20;100756.85;;;9.54;75.58
78343;BME280;67618;52.444;21.192;2023-04-19T02:06:21;100755.45;;;9.52;75.67
78343;BME280;67618;52.444;21.192;2023-04-19T02:11:22;100754.40;;;9.52;75.68
78343;BME280;67618;52.444;21.192;2023-04-19T02:16:24;100753.70;;;9.53;75.48
78343;BME280;67618;52.444;21.192;2023-04-19T02:21:25;100746.22;;;9.55;75.25
78343;BME280;67618;52.444;21.192;2023-04-19T02:26:27;100743.63;;;9.55;75.15
78343;BME280;67618;52.444;21.192;2023-04-19T02:31:29;100747.31;;;9.61;74.89
78343;BME280;67618;52.444;21.192;2023-04-19T02:36:30;100740.52;;;9.64;74.73
78343;BME280;67618;52.444;21.192;2023-04-19T02:41:32;100739.66;;;9.65;74.64
78343;BME280;67618;52.444;21.192;2023-04-19T02:46:33;100732.01;;;9.69;74.56
78343;BME280;67618;52.444;21.192;2023-04-19T02:51:35;100727.34;;;9.75;74.83
78343;BME280;67618;52.444;21.192;2023-04-19T02:56:36;100722.31;;;9.82;74.64
78343;BME280;67618;52.444;21.192;2023-04-19T03:01:37;100719.36;;;9.83;74.23
78343;BME280;67618;52.444;21.192;2023-04-19T03:06:39;100713.23;;;9.75;74.01
78343;BME280;67618;52.444;21.192;2023-04-19T03:11:42;100711.80;;;9.69;74.27
78343;BME280;67618;52.444;21.192;2023-04-19T03:16:43;100705.69;;;9.65;74.87
78343;BME280;67618;52.444;21.192;2023-04-19T03:21:45;100706.20;;;9.63;74.61
78343;BME280;67618;52.444;21.192;2023-04-19T03:26:47;100700.95;;;9.62;75.09
78343;BME280;67618;52.444;21.192;2023-04-19T03:31:48;100698.00;;;9.62;75.25
78343;BME280;67618;52.444;21.192;2023-04-19T03:36:50;100696.23;;;9.60;75.32
78343;BME280;67618;52.444;21.192;2023-04-19T03:41:51;100690.47;;;9.57;74.57
78343;BME280;67618;52.444;21.192;2023-04-19T03:46:53;100685.16;;;9.43;74.55
78343;BME280;67618;52.444;21.192;2023-04-19T03:51:54;100675.88;;;9.33;74.74
78343;BME280;67618;52.444;21.192;2023-04-19T03:56:55;100673.65;;;9.36;75.02
78343;BME280;67618;52.444;21.192;2023-04-19T04:01:57;100664.05;;;9.33;75.20
78343;BME280;67618;52.444;21.192;2023-04-19T04:06:58;100661.09;;;9.35;75.15
78343;BME280;67618;52.444;21.192;2023-04-19T04:12:00;100657.48;;;9.41;74.93
78343;BME280;67618;52.444;21.192;2023-04-19T04:17:01;100655.92;;;9.44;75.01
78343;BME280;67618;52.444;21.192;2023-04-19T04:22:03;100652.81;;;9.49;75.47
78343;BME280;67618;52.444;21.192;2023-04-19T04:27:05;100650.73;;;9.52;75.16
78343;BME280;67618;52.444;21.192;2023-04-19T04:32:07;100647.24;;;9.52;75.01
78343;BME280;67618;52.444;21.192;2023-04-19T04:37:10;100644.12;;;9.56;75.11
78343;BME280;67618;52.444;21.192;2023-04-19T04:42:12;100643.11;;;9.63;75.30
78343;BME280;67618;52.444;21.192;2023-04-19T04:47:14;100638.26;;;9.71;75.04
78343;BME280;67618;52.444;21.192;2023-04-19T04:52:15;100635.64;;;9.73;74.85
78343;BME280;67618;52.444;21.192;2023-04-19T04:57:17;100635.64;;;9.74;74.80
78343;BME280;67618;52.444;21.192;2023-04-19T05:02:18;100632.17;;;9.71;74.88
78343;BME280;67618;52.444;21.192;2023-04-19T05:07:20;100631.45;;;9.72;75.23
78343;BME280;67618;52.444;21.192;2023-04-19T05:12:21;100623.45;;;9.79;75.09
78343;BME280;67618;52.444;21.192;2023-04-19T05:17:23;100618.76;;;9.81;75.06
78343;BME280;67618;52.444;21.192;2023-04-19T05:22:24;100618.23;;;9.82;75.19
78343;BME280;67618;52.444;21.192;2023-04-19T05:27:26;100615.81;;;9.87;75.09
78343;BME280;67618;52.444;21.192;2023-04-19T05:32:28;100614.27;;;9.96;74.91
78343;BME280;67618;52.444;21.192;2023-04-19T05:37:29;100614.09;;;9.93;75.09
78343;BME280;67618;52.444;21.192;2023-04-19T05:42:31;100617.02;;;9.88;74.85
78343;BME280;67618;52.444;21.192;2023-04-19T05:47:32;100613.37;;;9.87;75.12
78343;BME280;67618;52.444;21.192;2023-04-19T05:52:34;100621.41;;;9.89;75.41
78343;BME280;67618;52.444;21.192;2023-04-19T05:57:35;100624.55;;;9.89;75.76
78343;BME280;67618;52.444;21.192;2023-04-19T06:02:37;100617.73;;;9.90;75.91
78343;BME280;67618;52.444;21.192;2023-04-19T06:07:38;100616.36;;;9.95;75.61
78343;BME280;67618;52.444;21.192;2023-04-19T06:12:40;100610.62;;;10.04;76.05
78343;BME280;67618;52.444;21.192;2023-04-19T06:17:41;100612.39;;;10.09;75.76
78343;BME280;67618;52.444;21.192;2023-04-19T06:22:45;100610.80;;;10.05;75.40
78343;BME280;67618;52.444;21.192;2023-04-19T06:27:46;100603.45;;;10.00;75.59
78343;BME280;67618;52.444;21.192;2023-04-19T06:32:48;100604.16;;;10.03;75.74
78343;BME280;67618;52.444;21.192;2023-04-19T06:37:49;100604.91;;;10.12;75.91
78343;BME280;67618;52.444;21.192;2023-04-19T06:42:51;100597.07;;;10.23;75.91
78343;BME280;67618;52.444;21.192;2023-04-19T06:47:53;100606.14;;;10.34;75.76
78343;BME280;67618;52.444;21.192;2023-04-19T06:52:54;100608.95;;;10.42;75.00
78343;BME280;67618;52.444;21.192;2023-04-19T06:57:56;100609.29;;;10.43;75.02
78343;BME280;67618;52.444;21.192;2023-04-19T07:02:57;100612.96;;;10.39;74.52
78343;BME280;67618;52.444;21.192;2023-04-19T07:08:00;100610.15;;;10.26;73.85
78343;BME280;67618;52.444;21.192;2023-04-19T07:13:01;100618.52;;;10.15;74.07
78343;BME280;67618;52.444;21.192;2023-04-19T07:18:03;100615.67;;;10.04;73.70
78343;BME280;67618;52.444;21.192;2023-04-19T07:23:04;100624.89;;;9.95;73.81
78343;BME280;67618;52.444;21.192;2023-04-19T07:28:06;100625.23;;;9.91;74.08
78343;BME280;67618;52.444;21.192;2023-04-19T07:33:07;100624.03;;;9.97;74.35
78343;BME280;67618;52.444;21.192;2023-04-19T07:38:09;100623.89;;;10.09;74.54
78343;BME280;67618;52.444;21.192;2023-04-19T07:43:10;100615.20;;;10.29;74.61
78343;BME280;67618;52.444;21.192;2023-04-19T07:48:12;100615.05;;;10.46;73.90
78343;BME280;67618;52.444;21.192;2023-04-19T07:53:13;100617.49;;;10.55;73.39
78343;BME280;67618;52.444;21.192;2023-04-19T07:58:15;100614.70;;;10.67;73.15
78343;BME280;67618;52.444;21.192;2023-04-19T08:03:16;100613.48;;;10.72;72.73
78343;BME280;67618;52.444;21.192;2023-04-19T08:08:18;100615.73;;;10.73;72.80
78343;BME280;67618;52.444;21.192;2023-04-19T08:13:19;100613.81;;;10.78;72.31
78343;BME280;67618;52.444;21.192;2023-04-19T08:18:21;100613.98;;;10.80;72.08
78343;BME280;67618;52.444;21.192;2023-04-19T08:23:23;100610.66;;;10.90;71.95
78343;BME280;67618;52.444;21.192;2023-04-19T08:28:24;100613.08;;;11.00;72.12
78343;BME280;67618;52.444;21.192;2023-04-19T08:33:27;100612.68;;;11.15;71.95
78343;BME280;67618;52.444;21.192;2023-04-19T08:38:29;100615.81;;;11.23;71.09
78343;BME280;67618;52.444;21.192;2023-04-19T08:43:34;100609.33;;;11.28;70.66
78343;BME280;67618;52.444;21.192;2023-04-19T08:48:37;100613.34;;;11.30;70.27
78343;BME280;67618;52.444;21.192;2023-04-19T08:53:41;100616.66;;;11.28;70.27
78343;BME280;67618;52.444;21.192;2023-04-19T08:58:43;100615.80;;;11.25;69.65
78343;BME280;67618;52.444;21.192;2023-04-19T09:03:44;100621.73;;;11.29;70.27
78343;BME280;67618;52.444;21.192;2023-04-19T09:08:49;100619.26;;;11.34;69.80
78343;BME280;67618;52.444;21.192;2023-04-19T09:14:06;100622.23;;;11.37;70.12
78343;BME280;67618;52.444;21.192;2023-04-19T09:19:07;100621.99;;;11.50;69.60
78343;BME280;67618;52.444;21.192;2023-04-19T09:24:09;100618.33;;;11.51;68.86
78343;BME280;67618;52.444;21.192;2023-04-19T09:29:15;100623.20;;;11.56;69.38
78343;BME280;67618;52.444;21.192;2023-04-19T09:34:17;100625.42;;;11.72;69.55
78343;BME280;67618;52.444;21.192;2023-04-19T09:39:29;100627.98;;;11.86;68.65
78343;BME280;67618;52.444;21.192;2023-04-19T09:44:32;100633.52;;;11.97;67.96
78343;BME280;67618;52.444;21.192;2023-04-19T09:49:35;100635.47;;;11.92;68.08
78343;BME280;67618;52.444;21.192;2023-04-19T09:54:36;100641.98;;;11.83;67.74
78343;BME280;67618;52.444;21.192;2023-04-19T09:59:39;100645.90;;;11.71;68.14
78343;BME280;67618;52.444;21.192;2023-04-19T10:04:41;100649.58;;;11.63;68.07
78343;BME280;67618;52.444;21.192;2023-04-19T10:09:43;100651.34;;;11.56;68.55
78343;BME280;67618;52.444;21.192;2023-04-19T10:14:45;100649.24;;;11.56;68.78
78343;BME280;67618;52.444;21.192;2023-04-19T10:20:24;100652.05;;;11.54;68.79
78343;BME280;67618;52.444;21.192;2023-04-19T10:25:17;100652.38;;;11.58;69.15
78343;BME280;67618;52.444;21.192;2023-04-19T10:30:19;100648.19;;;11.63;68.84
78343;BME280;67618;52.444;21.192;2023-04-19T10:35:36;100646.42;;;11.70;68.52
78343;BME280;67618;52.444;21.192;2023-04-19T10:45:52;100654.63;;;12.04;68.69
78343;BME280;67618;52.444;21.192;2023-04-19T10:51:05;100656.45;;;12.22;67.79
78343;BME280;67618;52.444;21.192;2023-04-19T10:56:11;100651.00;;;12.27;67.43
78343;BME280;67618;52.444;21.192;2023-04-19T11:01:36;100650.92;;;12.39;68.33
78343;BME280;67618;52.444;21.192;2023-04-19T11:11:57;100661.20;;;12.67;66.60
78343;BME280;67618;52.444;21.192;2023-04-19T11:17:01;100653.24;;;12.76;66.92
78343;BME280;67618;52.444;21.192;2023-04-19T11:22:02;100641.71;;;12.92;65.58
78343;BME280;67618;52.444;21.192;2023-04-19T11:27:07;100643.56;;;13.00;65.57
78343;BME280;67618;52.444;21.192;2023-04-19T11:32:09;100644.81;;;13.17;65.37
78343;BME280;67618;52.444;21.192;2023-04-19T11:37:11;100650.31;;;13.28;64.55
78343;BME280;67618;52.444;21.192;2023-04-19T11:42:19;100652.39;;;13.29;64.71
78343;BME280;67618;52.444;21.192;2023-04-19T11:47:20;100655.39;;;13.29;63.74
78343;BME280;67618;52.444;21.192;2023-04-19T11:52:24;100651.63;;;13.20;63.43
78343;BME280;67618;52.444;21.192;2023-04-19T11:57:27;100656.94;;;13.16;63.53
78343;BME280;67618;52.444;21.192;2023-04-19T12:02:29;100657.23;;;13.20;63.85
78343;BME280;67618;52.444;21.192;2023-04-19T12:07:30;100664.02;;;13.25;63.16
78343;BME280;67618;52.444;21.192;2023-04-19T12:12:32;100673.11;;;13.27;63.24
78343;BME280;67618;52.444;21.192;2023-04-19T12:17:33;100674.06;;;13.36;63.62
78343;BME280;67618;52.444;21.192;2023-04-19T12:22:35;100673.54;;;13.52;63.56
78343;BME280;67618;52.444;21.192;2023-04-19T12:27:36;100672.58;;;13.58;63.14
78343;BME280;67618;52.444;21.192;2023-04-19T12:32:37;100671.35;;;13.60;63.19
78343;BME280;67618;52.444;21.192;2023-04-19T12:37:39;100674.11;;;13.64;63.48
78343;BME280;67618;52.444;21.192;2023-04-19T12:42:40;100677.41;;;13.65;63.06
78343;BME280;67618;52.444;21.192;2023-04-19T12:47:43;100682.30;;;13.68;62.90
78343;BME280;67618;52.444;21.192;2023-04-19T12:52:45;100682.71;;;13.77;62.76
78343;BME280;67618;52.444;21.192;2023-04-19T12:57:46;100676.30;;;13.83;62.51
78343;BME280;67618;52.444;21.192;2023-04-19T13:02:48;100668.20;;;13.87;62.03
78343;BME280;67618;52.444;21.192;2023-04-19T13:07:49;100661.41;;;13.95;62.32
78343;BME280;67618;52.444;21.192;2023-04-19T13:12:50;100651.83;;;14.04;61.96
78343;BME280;67618;52.444;21.192;2023-04-19T13:17:52;100651.70;;;14.13;61.59
78343;BME280;67618;52.444;21.192;2023-04-19T13:22:53;100647.43;;;14.29;61.66
78343;BME280;67618;52.444;21.192;2023-04-19T13:27:55;100652.44;;;14.47;60.82
78343;BME280;67618;52.444;21.192;2023-04-19T13:32:56;100645.67;;;14.64;60.10
78343;BME280;67618;52.444;21.192;2023-04-19T13:37:58;100637.53;;;14.87;59.89
78343;BME280;67618;52.444;21.192;2023-04-19T13:42:59;100633.73;;;15.12;59.15
78343;BME280;67618;52.444;21.192;2023-04-19T13:48:00;100633.21;;;15.40;58.36
78343;BME280;67618;52.444;21.192;2023-04-19T13:53:02;100631.55;;;15.62;57.62
78343;BME280;67618;52.444;21.192;2023-04-19T13:58:03;100631.63;;;15.83;56.99
78343;BME280;67618;52.444;21.192;2023-04-19T14:03:05;100634.04;;;15.86;56.26
78343;BME280;67618;52.444;21.192;2023-04-19T14:08:06;100634.75;;;15.86;56.37
78343;BME280;67618;52.444;21.192;2023-04-19T14:13:08;100630.46;;;15.88;55.80
78343;BME280;67618;52.444;21.192;2023-04-19T14:18:09;100625.17;;;16.04;56.13
78343;BME280;67618;52.444;21.192;2023-04-19T14:23:11;100625.81;;;16.22;55.65
78343;BME280;67618;52.444;21.192;2023-04-19T14:28:12;100620.93;;;16.43;54.81
78343;BME280;67618;52.444;21.192;2023-04-19T14:33:14;100618.70;;;16.63;53.71
78343;BME280;67618;52.444;21.192;2023-04-19T14:38:15;100621.66;;;16.78;53.81
78343;BME280;67618;52.444;21.192;2023-04-19T14:43:16;100627.28;;;17.25;53.76
78343;BME280;67618;52.444;21.192;2023-04-19T14:48:18;100660.33;;;17.36;51.43
78343;BME280;67618;52.444;21.192;2023-04-19T14:53:19;100687.42;;;16.54;53.04
78343;BME280;67618;52.444;21.192;2023-04-19T14:58:21;100703.11;;;15.36;57.90
78343;BME280;67618;52.444;21.192;2023-04-19T15:03:22;100712.89;;;14.45;61.30
78343;BME280;67618;52.444;21.192;2023-04-19T15:08:23;100712.09;;;13.84;63.45
78343;BME280;67618;52.444;21.192;2023-04-19T15:13:25;100701.80;;;13.49;64.84
78343;BME280;67618;52.444;21.192;2023-04-19T15:18:27;100675.94;;;13.42;65.73
78343;BME280;67618;52.444;21.192;2023-04-19T15:23:28;100664.10;;;13.34;67.05
78343;BME280;67618;52.444;21.192;2023-04-19T15:28:32;100677.66;;;13.28;67.76
78343;BME280;67618;52.444;21.192;2023-04-19T15:33:35;100679.71;;;13.33;68.22
78343;BME280;67618;52.444;21.192;2023-04-19T15:38:37;100679.65;;;13.39;67.92
78343;BME280;67618;52.444;21.192;2023-04-19T15:43:39;100694.90;;;13.39;68.37
78343;BME280;67618;52.444;21.192;2023-04-19T15:48:41;100699.00;;;13.32;68.74
78343;BME280;67618;52.444;21.192;2023-04-19T15:53:44;100702.34;;;13.31;69.02
78343;BME280;67618;52.444;21.192;2023-04-19T15:58:45;100704.17;;;13.40;69.21
78343;BME280;67618;52.444;21.192;2023-04-19T16:03:46;100714.83;;;13.44;69.02
78343;BME280;67618;52.444;21.192;2023-04-19T16:08:48;100719.15;;;13.50;69.22
78343;BME280;67618;52.444;21.192;2023-04-19T16:13:50;100725.48;;;13.50;69.59
78343;BME280;67618;52.444;21.192;2023-04-19T16:18:51;100728.02;;;13.40;69.57
78343;BME280;67618;52.444;21.192;2023-04-19T16:23:54;100735.96;;;13.36;69.98
78343;BME280;67618;52.444;21.192;2023-04-19T16:28:56;100738.98;;;13.32;69.86
78343;BME280;67618;52.444;21.192;2023-04-19T16:33:59;100738.13;;;13.11;70.20
78343;BME280;67618;52.444;21.192;2023-04-19T16:39:00;100741.67;;;13.06;70.63
78343;BME280;67618;52.444;21.192;2023-04-19T16:44:02;100746.70;;;13.13;70.76
78343;BME280;67618;52.444;21.192;2023-04-19T16:49:03;100745.06;;;13.17;70.45
78343;BME280;67618;52.444;21.192;2023-04-19T16:54:05;100752.09;;;13.16;70.08
78343;BME280;67618;52.444;21.192;2023-04-19T16:59:06;100751.23;;;13.16;69.99
78343;BME280;67618;52.444;21.192;2023-04-19T17:04:08;100750.42;;;13.07;69.79
78343;BME280;67618;52.444;21.192;2023-04-19T17:09:09;100753.42;;;13.03;69.66
78343;BME280;67618;52.444;21.192;2023-04-19T17:14:10;100758.33;;;13.01;69.62
78343;BME280;67618;52.444;21.192;2023-04-19T17:19:12;100766.08;;;12.96;69.59
78343;BME280;67618;52.444;21.192;2023-04-19T17:24:13;100771.71;;;12.91;69.66
78343;BME280;67618;52.444;21.192;2023-04-19T17:29:15;100778.27;;;12.82;69.23
78343;BME280;67618;52.444;21.192;2023-04-19T17:34:16;100783.92;;;12.74;69.47
78343;BME280;67618;52.444;21.192;2023-04-19T17:39:18;100786.42;;;12.66;69.27
78343;BME280;67618;52.444;21.192;2023-04-19T17:44:20;100797.86;;;12.56;68.91
78343;BME280;67618;52.444;21.192;2023-04-19T17:49:22;100806.32;;;12.48;68.89
78343;BME280;67618;52.444;21.192;2023-04-19T17:54:23;100807.23;;;12.43;69.01
78343;BME280;67618;52.444;21.192;2023-04-19T17:59:24;100805.84;;;12.36;68.83
78343;BME280;67618;52.444;21.192;2023-04-19T18:04:26;100809.02;;;12.35;68.46
78343;BME280;67618;52.444;21.192;2023-04-19T18:09:27;100811.08;;;12.41;68.46
78343;BME280;67618;52.444;21.192;2023-04-19T18:14:29;100812.79;;;12.50;68.36
78343;BME280;67618;52.444;21.192;2023-04-19T18:19:31;100811.34;;;12.60;68.07
78343;BME280;67618;52.444;21.192;2023-04-19T18:24:32;100814.27;;;12.66;67.84
78343;BME280;67618;52.444;21.192;2023-04-19T18:29:33;100821.96;;;12.68;67.70
78343;BME280;67618;52.444;21.192;2023-04-19T18:34:35;100830.22;;;12.65;67.12
78343;BME280;67618;52.444;21.192;2023-04-19T18:39:36;100839.90;;;12.55;67.42
78343;BME280;67618;52.444;21.192;2023-04-19T18:44:38;100848.35;;;12.44;66.81
78343;BME280;67618;52.444;21.192;2023-04-19T18:49:39;100850.34;;;12.32;66.38
78343;BME280;67618;52.444;21.192;2023-04-19T18:54:41;100850.54;;;12.20;66.49
78343;BME280;67618;52.444;21.192;2023-04-19T18:59:42;100848.63;;;12.16;65.53
78343;BME280;67618;52.444;21.192;2023-04-19T19:04:44;100847.05;;;12.16;64.63
78343;BME280;67618;52.444;21.192;2023-04-19T19:09:45;100845.11;;;12.23;64.74
78343;BME280;67618;52.444;21.192;2023-04-19T19:14:47;100845.44;;;12.29;64.47
78343;BME280;67618;52.444;21.192;2023-04-19T19:19:48;100846.13;;;12.33;64.57
78343;BME280;67618;52.444;21.192;2023-04-19T19:24:50;100844.02;;;12.36;65.22
78343;BME280;67618;52.444;21.192;2023-04-19T19:29:51;100834.00;;;12.42;65.47
78343;BME280;67618;52.444;21.192;2023-04-19T19:34:52;100833.30;;;12.44;65.55
78343;BME280;67618;52.444;21.192;2023-04-19T19:39:54;100842.39;;;12.47;65.49
78343;BME280;67618;52.444;21.192;2023-04-19T19:44:55;100847.48;;;12.44;65.81
78343;BME280;67618;52.444;21.192;2023-04-19T19:49:57;100843.11;;;12.42;65.96
78343;BME280;67618;52.444;21.192;2023-04-19T19:54:58;100835.44;;;12.34;65.82
78343;BME280;67618;52.444;21.192;2023-04-19T20:00:01;100821.19;;;12.11;67.04
78343;BME280;67618;52.444;21.192;2023-04-19T20:05:03;100814.77;;;11.83;68.11
78343;BME280;67618;52.444;21.192;2023-04-19T20:10:10;100814.98;;;11.74;67.69
78343;BME280;67618;52.444;21.192;2023-04-19T20:15:13;100805.73;;;11.66;67.86
78343;BME280;67618;52.444;21.192;2023-04-19T20:20:14;100804.33;;;11.66;68.90
78343;BME280;67618;52.444;21.192;2023-04-19T20:25:15;100794.71;;;11.66;68.61
78343;BME280;67618;52.444;21.192;2023-04-19T20:30:17;100800.48;;;11.69;68.60
78343;BME280;67618;52.444;21.192;2023-04-19T20:35:18;100805.90;;;11.71;68.60
78343;BME280;67618;52.444;21.192;2023-04-19T20:40:20;100812.36;;;11.65;68.90
78343;BME280;67618;52.444;21.192;2023-04-19T20:45:23;100820.39;;;11.60;69.22
78343;BME280;67618;52.444;21.192;2023-04-19T20:50:25;100828.27;;;11.63;69.41
78343;BME280;67618;52.444;21.192;2023-04-19T20:55:27;100829.14;;;11.64;69.64
78343;BME280;67618;52.444;21.192;2023-04-19T21:00:28;100832.83;;;11.68;70.20
78343;BME280;67618;52.444;21.192;2023-04-19T21:05:30;100834.91;;;11.74;69.96
78343;BME280;67618;52.444;21.192;2023-04-19T21:10:31;100835.60;;;11.78;69.84
78343;BME280;67618;52.444;21.192;2023-04-19T21:15:33;100841.21;;;11.72;70.00
78343;BME280;67618;52.444;21.192;2023-04-19T21:20:36;100838.94;;;11.68;70.41
78343;BME280;67618;52.444;21.192;2023-04-19T21:25:38;100836.84;;;11.67;70.34
78343;BME280;67618;52.444;21.192;2023-04-19T21:30:39;100843.66;;;11.70;70.68
78343;BME280;67618;52.444;21.192;2023-04-19T21:35:43;100852.23;;;11.75;70.37
78343;BME280;67618;52.444;21.192;2023-04-19T21:40:45;100855.02;;;11.78;70.68
78343;BME280;67618;52.444;21.192;2023-04-19T21:45:46;100859.21;;;11.80;70.59
78343;BME280;67618;52.444;21.192;2023-04-19T21:50:48;100858.17;;;11.73;70.27
78343;BME280;67618;52.444;21.192;2023-04-19T21:55:49;100866.91;;;11.65;70.58
78343;BME280;67618;52.444;21.192;2023-04-19T22:00:51;100863.22;;;11.63;70.94
78343;BME280;67618;52.444;21.192;2023-04-19T22:05:53;100866.72;;;11.62;70.80
78343;BME280;67618;52.444;21.192;2023-04-19T22:10:55;100868.11;;;11.59;70.94
78343;BME280;67618;52.444;21.192;2023-04-19T22:16:00;100869.69;;;11.57;71.29
78343;BME280;67618;52.444;21.192;2023-04-19T22:21:02;100869.87;;;11.50;71.11
78343;BME280;67618;52.444;21.192;2023-04-19T22:26:04;100869.17;;;11.48;71.36
78343;BME280;67618;52.444;21.192;2023-04-19T22:31:06;100871.10;;;11.46;71.24
78343;BME280;67618;52.444;21.192;2023-04-19T22:36:07;100868.13;;;11.44;71.13
78343;BME280;67618;52.444;21.192;2023-04-19T22:41:09;100867.08;;;11.45;70.81
78343;BME280;67618;52.444;21.192;2023-04-19T22:46:11;100867.61;;;11.47;70.59
78343;BME280;67618;52.444;21.192;2023-04-19T22:51:13;100864.80;;;11.49;69.86
78343;BME280;67618;52.444;21.192;2023-04-19T22:56:14;100863.75;;;11.48;69.39
78343;BME280;67618;52.444;21.192;2023-04-19T23:01:18;100868.29;;;11.49;69.33
78343;BME280;67618;52.444;21.192;2023-04-19T23:06:19;100861.30;;;11.47;69.03
78343;BME280;67618;52.444;21.192;2023-04-19T23:11:20;100862.35;;;11.47;68.64
78343;BME280;67618;52.444;21.192;2023-04-19T23:16:25;100854.66;;;11.43;68.36
78343;BME280;67618;52.444;21.192;2023-04-19T23:21:26;100853.61;;;11.32;68.11
78343;BME280;67618;52.444;21.192;2023-04-19T23:26:30;100858.33;;;11.21;68.66
78343;BME280;67618;52.444;21.192;2023-04-19T23:31:31;100851.67;;;11.11;69.03
78343;BME280;67618;52.444;21.192;2023-04-19T23:36:33;100848.88;;;11.05;69.33
78343;BME280;67618;52.444;21.192;2023-04-19T23:41:34;100847.99;;;11.02;69.24
78343;BME280;67618;52.444;21.192;2023-04-19T23:46:35;100848.17;;;11.04;69.40
78343;BME280;67618;52.444;21.192;2023-04-19T23:51:37;100842.94;;;11.07;69.77
78343;BME280;67618;52.444;21.192;2023-04-19T23:56:38;100841.70;;;11.08;69.27
